createdAt,value
2022-11-30T00:03:02.722Z,71.62
2022-11-30T00:06:07.360Z,70.99
2022-11-30T00:09:09.730Z,71.69
2022-11-30T00:12:11.928Z,70.81
2022-11-30T00:15:17.155Z,70.26
2022-11-30T00:18:19.125Z,69.72
2022-11-30T00:21:21.376Z,69.90
2022-11-30T00:24:24.543Z,69.61
2022-11-30T00:27:28.217Z,70.11
2022-11-30T00:30:30.899Z,70.20
2022-11-30T00:33:35.599Z,70.37
2022-11-30T00:36:37.815Z,70.40
2022-11-30T00:39:39.945Z,70.93
2022-11-30T00:42:42.955Z,71.00
2022-11-30T00:45:45.166Z,71.17
2022-11-30T00:48:47.435Z,71.16
2022-11-30T00:51:49.639Z,70.96
2022-11-30T00:54:51.778Z,71.00
2022-11-30T00:57:54.146Z,70.73
2022-11-30T01:00:56.357Z,70.23
2022-11-30T01:03:58.773Z,70.37
2022-11-30T01:07:01.469Z,69.84
2022-11-30T01:10:04.092Z,70.26
2022-11-30T01:13:06.220Z,70.05
2022-11-30T01:16:10.564Z,70.22
2022-11-30T01:19:12.772Z,70.04
2022-11-30T01:22:14.817Z,70.20
2022-11-30T01:25:16.887Z,70.88
2022-11-30T01:28:19.267Z,70.63
2022-11-30T01:31:23.759Z,71.13
2022-11-30T01:34:25.941Z,70.76
2022-11-30T01:37:30.631Z,70.75
2022-11-30T01:40:32.644Z,70.75
2022-11-30T01:43:49.954Z,71.23
2022-11-30T01:47:05.636Z,70.78
2022-11-30T01:50:15.539Z,69.80
2022-11-30T01:53:17.573Z,69.56
2022-11-30T01:56:19.744Z,69.63
2022-11-30T01:59:24.152Z,69.73
2022-11-30T02:02:40.503Z,70.03
2022-11-30T02:05:44.132Z,69.85
2022-11-30T02:08:46.535Z,69.96
2022-11-30T02:11:49.752Z,71.16
2022-11-30T02:14:57.877Z,70.29
2022-11-30T02:18:12.235Z,70.97
2022-11-30T02:21:15.612Z,71.50
2022-11-30T02:24:54.730Z,71.25
2022-11-30T02:28:03.011Z,71.66
2022-11-30T02:31:08.955Z,71.42
2022-11-30T02:34:15.733Z,70.74
2022-11-30T02:37:19.478Z,69.99
2022-11-30T02:40:21.659Z,69.91
2022-11-30T02:43:26.691Z,70.20
2022-11-30T02:46:36.310Z,69.39
2022-11-30T02:50:07.644Z,69.66
2022-11-30T02:53:14.817Z,69.95
2022-11-30T02:56:17.963Z,69.92
2022-11-30T02:59:20.997Z,71.14
2022-11-30T03:02:23.122Z,71.39
2022-11-30T03:05:26.171Z,71.12
2022-11-30T03:08:28.276Z,70.81
2022-11-30T03:11:31.413Z,70.89
2022-11-30T03:14:33.404Z,70.72
2022-11-30T03:17:36.388Z,71.09
2022-11-30T03:20:43.838Z,70.75
2022-11-30T03:23:46.141Z,69.58
2022-11-30T03:26:48.191Z,69.77
2022-11-30T03:29:50.239Z,69.39
2022-11-30T03:32:52.855Z,69.88
2022-11-30T03:36:09.437Z,69.47
2022-11-30T03:39:11.594Z,69.57
2022-11-30T03:42:13.625Z,70.53
2022-11-30T03:45:15.819Z,70.91
2022-11-30T03:48:17.831Z,70.58
2022-11-30T03:51:20.171Z,70.87
2022-11-30T03:54:22.449Z,70.96
2022-11-30T03:57:27.323Z,70.18
2022-11-30T04:00:29.363Z,69.96
2022-11-30T04:03:31.487Z,70.20
2022-11-30T04:06:34.543Z,70.28
2022-11-30T04:09:36.476Z,70.14
2022-11-30T04:12:38.561Z,69.69
2022-11-30T04:15:40.670Z,69.92
2022-11-30T04:18:42.707Z,70.22
2022-11-30T04:21:44.847Z,68.97
2022-11-30T04:24:47.179Z,68.92
2022-11-30T04:27:49.439Z,69.45
2022-11-30T04:30:52.403Z,69.91
2022-11-30T04:33:54.683Z,69.95
2022-11-30T04:37:00.226Z,69.71
2022-11-30T04:40:02.907Z,69.75
2022-11-30T04:43:07.155Z,69.86
2022-11-30T04:46:09.295Z,70.66
2022-11-30T04:49:11.420Z,69.32
2022-11-30T04:52:13.697Z,70.05
2022-11-30T04:55:19.439Z,69.95
2022-11-30T04:58:21.708Z,68.67
2022-11-30T05:01:23.868Z,69.43
2022-11-30T05:04:26.161Z,71.28
2022-11-30T05:07:28.277Z,69.60
2022-11-30T05:10:32.175Z,65.48
2022-11-30T05:13:34.984Z,62.96
2022-11-30T05:16:37.022Z,61.38
2022-11-30T05:19:40.090Z,61.41
2022-11-30T05:22:42.185Z,62.54
2022-11-30T05:25:44.503Z,58.94
2022-11-30T05:28:46.524Z,56.61
2022-11-30T05:31:48.797Z,56.88
2022-11-30T05:34:52.016Z,55.05
2022-11-30T05:37:54.724Z,52.82
2022-11-30T05:41:01.719Z,55.74
2022-11-30T05:44:05.251Z,55.49
2022-11-30T05:47:07.409Z,54.56
2022-11-30T05:50:09.830Z,55.61
2022-11-30T05:53:11.924Z,54.97
2022-11-30T05:56:17.578Z,54.69
2022-11-30T05:59:19.577Z,59.10
2022-11-30T06:02:27.754Z,59.74
2022-11-30T06:05:30.401Z,61.69
2022-11-30T06:08:32.500Z,62.64
2022-11-30T06:11:35.744Z,66.11
2022-11-30T06:14:38.053Z,71.07
2022-11-30T06:17:40.241Z,77.49
2022-11-30T06:20:43.974Z,79.08
2022-11-30T06:23:46.151Z,78.74
2022-11-30T06:26:48.599Z,79.61
2022-11-30T06:29:51.301Z,82.73
2022-11-30T06:32:53.945Z,83.70
2022-11-30T06:35:56.627Z,76.32
2022-11-30T06:38:59.085Z,80.78
2022-11-30T06:42:01.255Z,72.21
2022-11-30T06:45:04.244Z,67.56
2022-11-30T06:48:06.447Z,71.08
2022-11-30T06:51:09.638Z,74.62
2022-11-30T06:54:11.932Z,74.48
2022-11-30T06:57:14.253Z,73.51
2022-11-30T07:00:17.120Z,73.75
2022-11-30T07:03:19.336Z,65.67
2022-11-30T07:06:21.380Z,55.99
2022-11-30T07:09:23.454Z,53.92
2022-11-30T07:12:26.284Z,50.99
2022-11-30T07:15:28.285Z,57.83
2022-11-30T07:18:32.850Z,63.41
2022-11-30T07:21:35.153Z,63.46
2022-11-30T07:25:06.592Z,65.29
2022-11-30T07:28:09.122Z,69.61
2022-11-30T07:31:22.349Z,68.53
2022-11-30T07:34:26.217Z,46.57
2022-11-30T07:37:28.462Z,43.73
2022-11-30T07:40:30.675Z,45.43
2022-11-30T07:43:33.546Z,47.01
2022-11-30T07:46:40.797Z,49.11
2022-11-30T07:49:43.642Z,54.86
2022-11-30T07:52:45.630Z,55.89
2022-11-30T07:55:49.672Z,55.24
2022-11-30T07:59:00.268Z,54.14
2022-11-30T08:02:03.047Z,54.42
2022-11-30T08:05:05.592Z,56.68
2022-11-30T08:08:07.929Z,56.95
2022-11-30T08:11:12.514Z,58.06
2022-11-30T08:14:14.808Z,60.13
2022-11-30T08:17:16.986Z,57.98
2022-11-30T08:20:21.337Z,57.66
2022-11-30T08:23:25.943Z,58.14
2022-11-30T08:26:30.610Z,57.08
2022-11-30T08:29:38.087Z,58.26
2022-11-30T08:32:43.191Z,61.77
2022-11-30T08:35:48.742Z,63.37
2022-11-30T08:38:52.440Z,66.52
2022-11-30T08:41:58.855Z,69.90
2022-11-30T08:45:01.217Z,72.85
2022-11-30T08:48:03.534Z,77.66
2022-11-30T08:51:08.974Z,81.44
2022-11-30T08:54:11.274Z,84.74
2022-11-30T08:57:16.115Z,87.33
2022-11-30T09:00:20.320Z,90.45
2022-11-30T09:03:22.370Z,90.71
2022-11-30T09:06:30.939Z,91.86
2022-11-30T09:13:27.732Z,91.92
2022-11-30T09:16:30.008Z,93.00
2022-11-30T09:20:54.841Z,88.78
2022-11-30T09:23:57.789Z,73.70
2022-11-30T09:27:05.276Z,70.60
2022-11-30T09:30:07.975Z,73.85
2022-11-30T09:33:10.134Z,76.11
2022-11-30T09:36:15.242Z,77.84
2022-11-30T09:39:17.288Z,78.23
2022-11-30T09:42:27.082Z,78.79
2022-11-30T09:45:31.913Z,77.66
2022-11-30T09:48:43.282Z,76.38
2022-11-30T09:51:49.918Z,75.49
2022-11-30T09:54:52.078Z,75.40
2022-11-30T09:58:02.360Z,74.92
2022-11-30T10:01:10.114Z,75.07
2022-11-30T10:04:23.429Z,74.05
2022-11-30T10:07:49.599Z,74.58
2022-11-30T10:11:00.995Z,74.26
2022-11-30T10:14:14.032Z,73.64
2022-11-30T10:17:54.826Z,75.18
2022-11-30T10:21:14.410Z,75.36
2022-11-30T10:24:44.191Z,74.53
2022-11-30T10:27:46.153Z,75.45
2022-11-30T10:30:49.500Z,76.59
2022-11-30T10:33:55.569Z,86.74
2022-11-30T10:37:14.342Z,85.50
2022-11-30T10:40:29.083Z,85.86
2022-11-30T10:43:43.689Z,85.04
2022-11-30T10:46:59.209Z,84.87
2022-11-30T10:50:01.295Z,83.77
2022-11-30T10:53:03.520Z,83.41
2022-11-30T10:56:08.369Z,82.48
2022-11-30T10:59:53.404Z,81.31
2022-11-30T11:02:55.629Z,81.14
2022-11-30T11:06:18.174Z,80.76
2022-11-30T11:09:37.261Z,79.46
2022-11-30T11:12:39.611Z,80.11
2022-11-30T11:15:57.870Z,80.11
2022-11-30T11:18:59.941Z,78.46
2022-11-30T11:22:14.947Z,78.74
2022-11-30T11:25:22.806Z,77.72
2022-11-30T11:28:25.976Z,78.11
2022-11-30T11:31:38.927Z,76.98
2022-11-30T11:34:41.114Z,76.27
2022-11-30T11:37:51.724Z,76.91
2022-11-30T11:41:07.270Z,76.32
2022-11-30T11:44:09.195Z,76.01
2022-11-30T11:47:24.899Z,76.52
2022-11-30T11:54:02.904Z,76.17
2022-11-30T11:57:19.052Z,76.78
2022-11-30T12:00:25.042Z,76.83
2022-11-30T12:03:53.885Z,77.42
2022-11-30T12:06:58.979Z,77.26
2022-11-30T12:13:49.398Z,78.19
2022-11-30T12:17:34.921Z,78.68
2022-11-30T12:20:50.282Z,79.61
2022-11-30T12:24:10.343Z,80.22
2022-11-30T12:27:50.483Z,79.51
2022-11-30T12:31:15.054Z,78.69
2022-11-30T12:34:26.829Z,78.47
2022-11-30T12:37:31.529Z,79.28
2022-11-30T12:40:38.683Z,78.81
2022-11-30T12:44:13.303Z,78.42
2022-11-30T12:47:37.195Z,78.33
2022-11-30T12:50:59.768Z,77.42
2022-11-30T12:54:14.746Z,77.41
2022-11-30T12:57:43.749Z,77.47
2022-11-30T13:01:30.477Z,78.15
2022-11-30T13:04:44.191Z,77.50
2022-11-30T13:07:54.810Z,77.70
2022-11-30T13:11:01.700Z,77.33
2022-11-30T13:14:10.064Z,77.00
2022-11-30T13:17:19.609Z,76.92
2022-11-30T13:20:45.367Z,77.09
2022-11-30T13:23:53.019Z,77.76
2022-11-30T13:27:18.385Z,78.73
2022-11-30T13:30:31.965Z,78.66
2022-11-30T13:33:33.911Z,79.77
2022-11-30T13:36:44.841Z,80.46
2022-11-30T13:39:50.579Z,80.58
2022-11-30T13:42:56.336Z,79.97
2022-11-30T13:46:05.938Z,80.28
2022-11-30T13:49:22.279Z,80.43
2022-11-30T13:52:58.552Z,80.65
2022-11-30T13:56:07.835Z,80.79
2022-11-30T13:59:24.865Z,81.65
2022-11-30T14:05:57.627Z,82.13
2022-11-30T14:08:59.758Z,82.38
2022-11-30T14:12:34.734Z,82.75
2022-11-30T14:15:39.477Z,82.91
2022-11-30T14:18:46.935Z,83.39
2022-11-30T14:21:49.419Z,83.58
2022-11-30T14:24:52.904Z,82.95
2022-11-30T14:27:57.099Z,83.01
2022-11-30T14:31:00.246Z,83.93
2022-11-30T14:34:20.577Z,83.91
2022-11-30T14:37:23.587Z,84.00
2022-11-30T14:40:29.901Z,84.25
2022-11-30T14:43:32.086Z,84.39
2022-11-30T14:46:44.605Z,84.67
2022-11-30T14:49:52.186Z,84.58
2022-11-30T14:53:26.594Z,84.07
2022-11-30T14:56:41.055Z,83.72
2022-11-30T15:00:03.876Z,83.60
2022-11-30T15:03:18.767Z,83.49
2022-11-30T15:06:27.137Z,83.97
2022-11-30T15:09:32.647Z,83.93
2022-11-30T15:12:38.230Z,84.28
2022-11-30T15:15:50.615Z,84.17
2022-11-30T15:18:54.727Z,84.16
2022-11-30T15:21:58.465Z,83.81
2022-11-30T15:25:02.057Z,83.85
2022-11-30T15:28:07.522Z,83.96
2022-11-30T15:31:15.974Z,83.25
2022-11-30T15:34:20.207Z,83.51
2022-11-30T15:37:29.761Z,83.05
2022-11-30T15:40:35.235Z,83.19
2022-11-30T15:43:40.320Z,83.25
2022-11-30T15:47:09.209Z,82.67
2022-11-30T15:50:32.575Z,83.51
2022-11-30T15:53:53.248Z,83.91
2022-11-30T15:56:58.923Z,84.34
2022-11-30T16:00:24.151Z,83.87
2022-11-30T16:03:26.143Z,83.66
2022-11-30T16:07:00.580Z,83.74
2022-11-30T16:10:35.454Z,83.65
2022-11-30T16:13:40.485Z,83.78
2022-11-30T16:16:43.654Z,83.83
2022-11-30T16:19:48.356Z,83.28
2022-11-30T16:22:51.106Z,83.71
2022-11-30T16:25:53.983Z,83.97
2022-11-30T16:28:58.430Z,83.87
2022-11-30T16:32:00.686Z,83.58
2022-11-30T16:35:03.303Z,83.25
2022-11-30T16:38:06.584Z,83.60
2022-11-30T16:41:23.729Z,83.72
2022-11-30T16:44:26.264Z,83.91
2022-11-30T16:47:28.208Z,84.34
2022-11-30T16:50:34.416Z,83.41
2022-11-30T16:53:41.479Z,83.46
2022-11-30T16:56:46.362Z,83.72
2022-11-30T16:59:48.502Z,83.12
2022-11-30T17:06:35.423Z,83.22
2022-11-30T17:09:41.311Z,84.11
2022-11-30T17:12:55.383Z,83.93
2022-11-30T17:16:06.647Z,83.29
2022-11-30T17:19:10.515Z,83.86
2022-11-30T17:22:23.288Z,83.54
2022-11-30T17:25:27.460Z,83.66
2022-11-30T17:28:31.729Z,83.01
2022-11-30T17:31:33.890Z,83.10
2022-11-30T17:34:36.691Z,82.57
2022-11-30T17:37:39.978Z,83.50
2022-11-30T17:40:44.347Z,83.34
2022-11-30T17:43:53.997Z,83.30
2022-11-30T17:46:56.430Z,83.21
2022-11-30T17:49:59.937Z,83.11
2022-11-30T17:53:02.275Z,83.48
2022-11-30T17:56:18.473Z,83.90
2022-11-30T17:59:20.371Z,83.72
2022-11-30T18:02:27.007Z,84.35
2022-11-30T18:05:32.392Z,84.30
2022-11-30T18:08:35.332Z,84.53
2022-11-30T18:11:37.402Z,85.14
2022-11-30T18:14:40.102Z,85.07
2022-11-30T18:17:42.911Z,84.97
2022-11-30T18:20:44.903Z,85.09
2022-11-30T18:23:50.046Z,85.41
2022-11-30T18:26:52.914Z,85.28
2022-11-30T18:29:55.157Z,84.98
2022-11-30T18:32:58.074Z,84.98
2022-11-30T18:36:01.482Z,85.00
2022-11-30T18:39:03.863Z,85.73
2022-11-30T18:42:06.375Z,85.79
2022-11-30T18:45:08.842Z,86.12
2022-11-30T18:48:12.524Z,85.92
2022-11-30T18:51:20.658Z,85.74
2022-11-30T18:54:25.474Z,86.24
2022-11-30T18:57:28.650Z,85.74
2022-11-30T19:00:33.929Z,85.88
2022-11-30T19:03:37.853Z,85.44
2022-11-30T19:06:43.920Z,85.55
2022-11-30T19:09:50.915Z,86.26
2022-11-30T19:13:18.735Z,86.20
2022-11-30T19:16:21.287Z,85.02
2022-11-30T19:19:23.996Z,85.00
2022-11-30T19:22:30.290Z,85.52
2022-11-30T19:25:33.089Z,85.27
2022-11-30T19:28:37.386Z,85.09
2022-11-30T19:31:40.061Z,84.96
2022-11-30T19:34:43.005Z,84.35
2022-11-30T19:37:46.037Z,85.07
2022-11-30T19:40:48.239Z,84.94
2022-11-30T19:44:03.144Z,85.54
2022-11-30T19:47:07.967Z,85.24
2022-11-30T19:50:10.180Z,84.59
2022-11-30T19:53:16.263Z,85.40
2022-11-30T19:56:19.307Z,85.27
2022-11-30T19:59:22.385Z,84.41
2022-11-30T20:02:25.403Z,84.31
2022-11-30T20:05:30.703Z,84.76
2022-11-30T20:08:32.906Z,85.15
2022-11-30T20:11:40.630Z,85.32
2022-11-30T20:14:42.724Z,85.02
2022-11-30T20:17:45.890Z,85.10
2022-11-30T20:20:49.885Z,85.14
2022-11-30T20:23:57.994Z,84.73
2022-11-30T20:27:01.281Z,84.88
2022-11-30T20:30:05.535Z,84.22
2022-11-30T20:39:46.248Z,85.09
2022-11-30T20:42:48.752Z,84.53
2022-11-30T20:45:52.532Z,84.62
2022-11-30T20:48:57.549Z,85.06
2022-11-30T20:55:40.971Z,84.80
2022-11-30T20:58:52.105Z,85.34
2022-11-30T21:02:04.296Z,84.67
2022-11-30T21:05:14.728Z,85.13
2022-11-30T21:08:20.194Z,84.80
2022-11-30T21:11:27.713Z,84.22
2022-11-30T21:16:16.362Z,84.73
2022-11-30T21:18:56.500Z,84.51
2022-11-30T21:21:59.877Z,85.23
2022-11-30T21:25:05.013Z,84.08
2022-11-30T21:28:08.362Z,84.54
2022-11-30T21:31:12.700Z,84.36
2022-11-30T21:34:17.943Z,84.33
2022-11-30T21:37:22.537Z,84.08
2022-11-30T21:40:24.544Z,84.50
2022-11-30T21:43:29.779Z,83.60
2022-11-30T21:46:33.299Z,84.73
2022-11-30T21:49:38.989Z,83.54
2022-11-30T21:52:42.264Z,84.01
2022-11-30T21:55:44.353Z,83.88
2022-11-30T21:58:49.942Z,82.70
2022-11-30T22:01:52.010Z,83.41
2022-11-30T22:04:54.026Z,83.64
2022-11-30T22:07:56.569Z,84.05
2022-11-30T22:11:03.641Z,83.73
2022-11-30T22:14:08.022Z,83.67
2022-11-30T22:17:12.830Z,83.52
2022-11-30T22:20:18.682Z,82.95
2022-11-30T22:23:30.491Z,83.22
2022-11-30T22:26:38.144Z,84.47
2022-11-30T22:29:40.245Z,84.08
2022-11-30T22:32:49.978Z,83.75
2022-11-30T22:35:54.459Z,84.27
2022-11-30T22:39:00.318Z,84.74
2022-11-30T22:42:02.364Z,84.59
2022-11-30T22:45:07.271Z,84.74
2022-11-30T22:48:10.842Z,84.09
2022-11-30T22:51:15.604Z,84.06
2022-11-30T22:54:21.066Z,83.76
2022-11-30T22:57:23.604Z,83.95
2022-11-30T23:00:25.965Z,84.40
2022-11-30T23:03:28.374Z,84.49
2022-11-30T23:06:30.872Z,84.53
2022-11-30T23:09:32.953Z,84.11
2022-11-30T23:12:58.632Z,83.68
2022-11-30T23:16:00.408Z,84.21
2022-11-30T23:19:06.758Z,84.70
2022-11-30T23:22:08.916Z,84.25
2022-11-30T23:25:11.085Z,84.61
2022-11-30T23:28:14.046Z,83.87
2022-11-30T23:31:33.688Z,83.65
2022-11-30T23:34:38.889Z,83.71
2022-11-30T23:37:40.911Z,84.05
2022-11-30T23:40:42.999Z,83.61
2022-11-30T23:43:47.612Z,83.78
2022-11-30T23:46:53.706Z,83.89
2022-11-30T23:49:56.153Z,84.00
2022-11-30T23:52:58.271Z,83.50
2022-11-30T23:56:09.350Z,83.35
2022-11-30T23:59:11.527Z,83.89
